Yuba County Airport
KMYV : now visible

Airfield :











YOU CAN JOIN US ON...

 
LOGIN :

Register | Disclaimer

   EN    FR    IT 

 









Legend :    VFR   Marginal VFR   IFR   Intensive IFR   Very Intensive IFR
Visi :
Ceiling :
>= 8 km
>= 3000ft
5 to 8 km
1000 to 3000 ft
1500m to 5 km
500 to 1000 ft
800 to 1500m
200 to 500 ft
< 800m
< 200 ft
Symbols :   Thunderstorms  Fog  Heavy snow  Heavy precipitations  Wind > 20 kt






- Airport Elevation : 64 ft


KMYV - Yuba County

CURRENT METAR :
  • 041253Z AUTO 00000KT 10SM CLR 02/M01 A3028 RMK AO2 SLP259 T00171006

EXPIRED METARs :
  • 041153Z AUTO 00000KT 9SM CLR 02/01 A3030 RMK AO2 SLP264 T00220011 10067 20017 58007
  • 041053Z AUTO 36004KT 10SM CLR 03/02 A3031 RMK AO2 SLP268 T00280017

TAF N/A
KZOA FIR / North America



MET'MAP, your aeronautical weather chart ! - Copyright ORBIFLY December 2007 - Disclaimer

ORBIFLY MET'MAP TEAM :

Programming & Development : Alexandra Zaïnal
Concept & original design : Baudouin d'Aumeries
Assistance for programming : Marc-Olivier Méhu
Technical & hardware support : Manuel Goepfert

Contact : metmap@orbifly.com




SOURCES & CREDITS :

   NOAA       Earth
Advisory